createdAt,value
2023-11-23T00:01:14.479Z,8.06
2023-11-23T00:03:44.218Z,8.07
2023-11-23T00:06:12.719Z,8.13
2023-11-23T00:08:43.096Z,8.07
2023-11-23T00:11:11.612Z,8.08
2023-11-23T00:13:39.891Z,8.04
2023-11-23T00:16:09.064Z,8.04
2023-11-23T00:18:37.458Z,8.06
2023-11-23T00:21:07.416Z,8.06
2023-11-23T00:23:35.688Z,8.12
2023-11-23T00:26:04.882Z,8.04
2023-11-23T00:28:33.153Z,8.09
2023-11-23T00:31:01.451Z,8.11
2023-11-23T00:33:29.778Z,8.16
2023-11-23T00:35:58.434Z,8.19
2023-11-23T00:38:28.091Z,8.15
2023-11-23T00:40:56.351Z,8.22
2023-11-23T00:43:25.855Z,8.16
2023-11-23T00:45:54.115Z,8.16
2023-11-23T00:48:22.573Z,8.21
2023-11-23T00:50:50.951Z,8.22
2023-11-23T00:53:19.197Z,8.22
2023-11-23T00:55:48.915Z,8.30
2023-11-23T00:58:17.719Z,8.26
2023-11-23T01:00:46.697Z,8.31
2023-11-23T01:03:15.078Z,8.32
2023-11-23T01:05:45.166Z,8.32
2023-11-23T01:08:15.828Z,8.36
2023-11-23T01:10:44.874Z,8.35
2023-11-23T01:13:15.266Z,8.38
2023-11-23T01:15:43.522Z,8.39
2023-11-23T01:18:11.903Z,8.41
2023-11-23T01:20:40.175Z,8.42
2023-11-23T01:23:08.438Z,8.42
2023-11-23T01:25:36.794Z,8.49
2023-11-23T01:28:05.303Z,8.47
2023-11-23T01:30:34.932Z,8.50
2023-11-23T01:33:03.716Z,8.44
2023-11-23T01:35:32.179Z,8.47
2023-11-23T01:38:00.440Z,8.47
2023-11-23T01:40:28.748Z,8.48
2023-11-23T01:43:03.047Z,8.47
2023-11-23T01:45:31.309Z,8.53
2023-11-23T01:48:01.308Z,8.56
2023-11-23T01:50:31.539Z,8.59
2023-11-23T01:53:00.492Z,8.53
2023-11-23T01:55:28.848Z,8.55
2023-11-23T01:57:59.047Z,8.61
2023-11-23T02:00:28.781Z,8.64
2023-11-23T02:02:58.171Z,8.70
2023-11-23T02:05:28.732Z,8.70
2023-11-23T02:07:57.022Z,8.71
2023-11-23T02:10:25.359Z,8.72
2023-11-23T02:12:54.939Z,8.68
2023-11-23T02:15:23.382Z,8.74
2023-11-23T02:18:02.610Z,8.76
2023-11-23T02:20:33.356Z,8.79
2023-11-23T02:23:02.209Z,8.80
2023-11-23T02:25:31.921Z,8.85
2023-11-23T02:28:00.166Z,8.87
2023-11-23T02:30:28.654Z,8.87
2023-11-23T02:32:56.077Z,8.87
2023-11-23T02:35:24.360Z,8.88
2023-11-23T02:37:52.621Z,8.93
2023-11-23T02:40:20.956Z,8.91
2023-11-23T02:42:50.611Z,8.97
2023-11-23T02:45:19.005Z,8.98
2023-11-23T02:47:47.325Z,9.01
2023-11-23T02:50:15.785Z,9.00
2023-11-23T02:52:44.104Z,9.03
2023-11-23T02:55:13.258Z,9.02
2023-11-23T02:57:43.312Z,9.06
2023-11-23T03:00:14.294Z,9.08
2023-11-23T03:02:42.733Z,9.14
2023-11-23T03:05:12.642Z,9.14
2023-11-23T03:07:41.053Z,9.15
2023-11-23T03:10:10.772Z,9.07
2023-11-23T03:12:39.074Z,9.10
2023-11-23T03:15:08.009Z,9.10
2023-11-23T03:17:37.825Z,9.05
2023-11-23T03:20:07.233Z,9.11
2023-11-23T03:22:35.460Z,9.15
2023-11-23T03:25:03.881Z,9.14
2023-11-23T03:27:34.305Z,9.11
2023-11-23T03:30:04.070Z,9.04
2023-11-23T03:32:33.503Z,9.04
2023-11-23T03:35:04.476Z,9.02
2023-11-23T03:37:32.812Z,9.04
2023-11-23T03:40:01.044Z,9.04
2023-11-23T03:42:29.349Z,9.03
2023-11-23T03:44:57.645Z,8.98
2023-11-23T03:47:25.894Z,8.97
2023-11-23T03:49:54.986Z,8.97
2023-11-23T03:52:24.654Z,9.03
2023-11-23T03:54:54.529Z,8.97
2023-11-23T03:57:22.801Z,8.97
2023-11-23T03:59:51.050Z,9.02
2023-11-23T04:02:19.684Z,9.03
2023-11-23T04:04:48.040Z,9.02
2023-11-23T04:07:16.268Z,8.98
2023-11-23T04:09:45.908Z,9.01
2023-11-23T04:12:14.200Z,9.01
2023-11-23T04:14:42.461Z,8.97
2023-11-23T04:17:10.679Z,8.94
2023-11-23T04:19:39.419Z,8.93
2023-11-23T04:22:08.040Z,8.93
2023-11-23T04:24:38.320Z,8.88
2023-11-23T04:27:08.048Z,8.93
2023-11-23T04:29:36.304Z,8.96
2023-11-23T04:32:05.372Z,8.95
2023-11-23T04:34:33.846Z,8.95
2023-11-23T04:37:02.217Z,9.04
2023-11-23T04:39:30.407Z,8.98
2023-11-23T04:41:58.765Z,8.96
2023-11-23T04:44:28.468Z,8.91
2023-11-23T04:46:56.751Z,8.93
2023-11-23T04:49:24.966Z,8.96
2023-11-23T04:51:53.304Z,8.94
2023-11-23T04:54:21.612Z,8.92
2023-11-23T04:56:51.977Z,8.91
2023-11-23T04:59:20.196Z,9.01
2023-11-23T05:01:49.882Z,8.98
2023-11-23T05:04:18.394Z,8.95
2023-11-23T05:06:46.691Z,8.88
2023-11-23T05:09:15.091Z,8.88
2023-11-23T05:11:43.390Z,8.92
2023-11-23T05:14:11.624Z,8.98
2023-11-23T05:16:39.996Z,8.98
2023-11-23T05:19:09.589Z,9.05
2023-11-23T05:21:37.972Z,9.07
2023-11-23T05:24:07.077Z,9.07
2023-11-23T05:26:35.343Z,9.06
2023-11-23T05:29:03.587Z,9.14
2023-11-23T05:31:31.876Z,9.14
2023-11-23T05:34:00.188Z,9.10
2023-11-23T05:36:30.286Z,9.16
2023-11-23T05:38:58.658Z,9.15
2023-11-23T05:41:26.930Z,9.14
2023-11-23T05:43:55.341Z,9.14
2023-11-23T05:46:23.628Z,9.09
2023-11-23T05:48:51.851Z,9.05
2023-11-23T05:51:21.687Z,9.06
2023-11-23T05:53:53.186Z,8.97
2023-11-23T05:56:22.012Z,9.00
2023-11-23T05:58:50.238Z,8.91
2023-11-23T06:01:18.621Z,8.92
2023-11-23T06:03:47.258Z,8.82
2023-11-23T06:06:22.809Z,8.74
2023-11-23T06:08:52.793Z,8.71
2023-11-23T06:11:21.128Z,8.70
2023-11-23T06:13:50.237Z,8.70
2023-11-23T06:16:18.522Z,8.68
2023-11-23T06:18:46.984Z,8.71
2023-11-23T06:21:15.598Z,8.60
2023-11-23T06:23:44.068Z,8.62
2023-11-23T06:26:13.706Z,8.59
2023-11-23T06:28:42.261Z,8.53
2023-11-23T06:31:10.474Z,8.52
2023-11-23T06:33:38.764Z,8.50
2023-11-23T06:36:07.680Z,8.46
2023-11-23T06:38:36.042Z,8.45
2023-11-23T06:41:04.864Z,8.48
2023-11-23T06:43:34.437Z,8.42
2023-11-23T06:46:02.683Z,8.38
2023-11-23T06:48:31.014Z,8.42
2023-11-23T06:50:59.281Z,8.41
2023-11-23T06:53:27.582Z,8.38
2023-11-23T06:55:56.037Z,8.39
2023-11-23T06:58:24.287Z,8.41
2023-11-23T07:00:53.980Z,8.42
2023-11-23T07:03:22.683Z,8.37
2023-11-23T07:05:51.754Z,8.37
2023-11-23T07:08:19.994Z,8.39
2023-11-23T07:10:48.225Z,8.43
2023-11-23T07:13:16.957Z,8.33
2023-11-23T07:15:45.191Z,8.39
2023-11-23T07:18:15.635Z,8.36
2023-11-23T07:20:45.606Z,8.32
2023-11-23T07:23:13.825Z,8.31
2023-11-23T07:25:44.784Z,8.34
2023-11-23T07:28:13.442Z,8.28
2023-11-23T07:30:41.806Z,8.23
2023-11-23T07:33:10.290Z,8.24
2023-11-23T07:35:40.265Z,8.29
2023-11-23T07:38:09.457Z,8.37
2023-11-23T07:40:37.804Z,8.43
2023-11-23T07:43:06.315Z,8.56
2023-11-23T07:45:34.597Z,8.70
2023-11-23T07:48:10.038Z,8.73
2023-11-23T07:50:40.165Z,8.80
2023-11-23T07:53:08.781Z,8.91
2023-11-23T07:55:38.133Z,8.91
2023-11-23T07:58:06.567Z,8.93
2023-11-23T08:00:38.741Z,9.07
2023-11-23T08:03:07.195Z,9.09
2023-11-23T08:05:36.925Z,9.18
2023-11-23T08:08:06.991Z,9.23
2023-11-23T08:10:35.267Z,9.25
2023-11-23T08:13:03.838Z,9.24
2023-11-23T08:15:32.399Z,9.29
2023-11-23T08:18:05.548Z,9.33
2023-11-23T08:20:38.405Z,9.41
2023-11-23T08:23:08.983Z,9.49
2023-11-23T08:25:38.927Z,9.53
2023-11-23T08:28:07.216Z,9.52
2023-11-23T08:30:35.613Z,9.48
2023-11-23T08:33:03.997Z,9.44
2023-11-23T08:35:32.413Z,9.37
2023-11-23T08:38:01.954Z,9.36
2023-11-23T08:40:33.052Z,9.42
2023-11-23T08:43:01.478Z,9.46
2023-11-23T08:45:30.067Z,9.52
2023-11-23T08:47:58.454Z,9.54
2023-11-23T08:50:26.952Z,9.69
2023-11-23T08:52:58.843Z,9.74
2023-11-23T08:55:27.398Z,9.83
2023-11-23T08:57:57.067Z,9.79
2023-11-23T09:00:26.432Z,9.81
2023-11-23T09:02:55.542Z,9.74
2023-11-23T09:05:24.748Z,9.89
2023-11-23T09:07:53.154Z,9.96
2023-11-23T09:10:24.600Z,10.04
2023-11-23T09:12:53.033Z,10.11
2023-11-23T09:15:24.178Z,10.20
2023-11-23T09:17:53.037Z,10.23
2023-11-23T09:20:21.336Z,10.33
2023-11-23T09:22:50.080Z,10.41
2023-11-23T09:25:19.706Z,10.42
2023-11-23T09:27:48.048Z,10.46
2023-11-23T09:30:16.971Z,10.52
2023-11-23T09:32:46.692Z,10.64
2023-11-23T09:35:15.002Z,10.68
2023-11-23T09:37:43.257Z,10.72
2023-11-23T09:40:18.964Z,10.84
2023-11-23T09:42:49.670Z,10.85
2023-11-23T09:45:24.095Z,10.93
2023-11-23T09:47:57.888Z,11.04
2023-11-23T09:50:32.823Z,11.03
2023-11-23T09:53:05.451Z,11.16
2023-11-23T09:55:33.797Z,11.14
2023-11-23T09:58:05.922Z,11.16
2023-11-23T10:00:36.676Z,11.10
2023-11-23T10:03:09.707Z,11.11
2023-11-23T10:05:39.922Z,11.12
2023-11-23T10:08:08.423Z,11.23
2023-11-23T10:10:40.108Z,11.30
2023-11-23T10:13:10.012Z,11.37
2023-11-23T10:15:38.654Z,11.42
2023-11-23T10:18:09.054Z,11.48
2023-11-23T10:20:39.949Z,11.49
2023-11-23T10:23:10.368Z,11.61
2023-11-23T10:25:38.735Z,11.63
2023-11-23T10:28:07.142Z,11.64
2023-11-23T10:30:39.053Z,11.70
2023-11-23T10:33:12.708Z,11.71
2023-11-23T10:35:46.677Z,11.77
2023-11-23T10:38:17.516Z,11.81
2023-11-23T10:40:46.712Z,11.89
2023-11-23T10:43:18.546Z,11.88
2023-11-23T10:45:49.881Z,11.85
2023-11-23T10:48:27.396Z,11.83
2023-11-23T10:50:59.813Z,11.88
2023-11-23T10:53:29.533Z,12.04
2023-11-23T10:56:00.781Z,11.91
2023-11-23T10:58:32.161Z,11.76
2023-11-23T11:01:02.634Z,11.98
2023-11-23T11:03:32.452Z,11.98
2023-11-23T11:06:09.263Z,11.99
2023-11-23T11:08:39.477Z,12.19
2023-11-23T11:11:12.210Z,12.11
2023-11-23T11:13:44.213Z,12.36
2023-11-23T11:16:15.784Z,12.51
2023-11-23T11:18:53.934Z,12.48
2023-11-23T11:21:25.301Z,12.46
2023-11-23T11:23:54.674Z,12.43
2023-11-23T11:26:25.576Z,12.34
2023-11-23T11:28:56.336Z,12.35
2023-11-23T11:31:32.441Z,12.42
2023-11-23T11:34:03.126Z,12.53
2023-11-23T11:36:32.939Z,12.49
2023-11-23T11:39:02.715Z,12.47
2023-11-23T11:41:32.979Z,12.41
2023-11-23T11:44:01.357Z,12.45
2023-11-23T11:46:30.176Z,12.41
2023-11-23T11:48:59.406Z,12.36
2023-11-23T11:51:29.917Z,12.36
2023-11-23T11:54:00.755Z,12.41
2023-11-23T11:56:30.054Z,12.32
2023-11-23T11:59:00.135Z,12.35
2023-11-23T12:01:28.578Z,12.30
2023-11-23T12:03:57.018Z,12.33
2023-11-23T12:06:25.374Z,12.30
2023-11-23T12:08:55.054Z,12.27
2023-11-23T12:11:25.809Z,12.18
2023-11-23T12:13:55.706Z,12.25
2023-11-23T12:16:33.516Z,12.21
2023-11-23T12:19:01.810Z,12.20
2023-11-23T12:21:32.250Z,12.22
2023-11-23T12:24:03.985Z,12.16
2023-11-23T12:26:34.528Z,12.18
2023-11-23T12:29:04.159Z,12.11
2023-11-23T12:31:33.709Z,12.11
2023-11-23T12:34:02.358Z,12.11
2023-11-23T12:36:30.564Z,12.10
2023-11-23T12:38:59.021Z,12.16
2023-11-23T12:41:31.146Z,12.13
2023-11-23T12:44:02.699Z,12.22
2023-11-23T12:46:31.314Z,12.18
2023-11-23T12:49:00.784Z,12.25
2023-11-23T12:51:29.209Z,12.25
2023-11-23T12:53:57.850Z,12.25
2023-11-23T12:56:26.279Z,12.31
2023-11-23T12:58:55.900Z,12.28
2023-11-23T13:01:24.687Z,12.16
2023-11-23T13:03:53.184Z,12.18
2023-11-23T13:06:22.618Z,12.28
2023-11-23T13:08:50.897Z,12.35
2023-11-23T13:11:19.272Z,12.48
2023-11-23T13:13:49.640Z,12.51
2023-11-23T13:16:21.772Z,12.47
2023-11-23T13:19:05.518Z,12.55
2023-11-23T13:21:38.415Z,12.42
2023-11-23T13:24:08.103Z,12.43
2023-11-23T13:26:36.564Z,12.53
2023-11-23T13:29:04.888Z,12.48
2023-11-23T13:31:36.812Z,12.49
2023-11-23T13:34:07.302Z,12.43
2023-11-23T13:36:36.836Z,12.48
2023-11-23T13:39:05.842Z,12.49
2023-11-23T13:41:34.611Z,12.69
2023-11-23T13:44:03.688Z,12.65
2023-11-23T13:46:33.778Z,12.65
2023-11-23T13:49:04.118Z,12.72
2023-11-23T13:51:34.660Z,12.56
2023-11-23T13:54:05.600Z,12.48
2023-11-23T13:56:35.500Z,12.48
2023-11-23T13:59:03.790Z,12.40
2023-11-23T14:01:32.161Z,12.32
2023-11-23T14:04:02.711Z,12.23
2023-11-23T14:06:32.620Z,12.29
2023-11-23T14:09:02.892Z,12.26
2023-11-23T14:11:31.200Z,12.21
2023-11-23T14:13:59.508Z,12.18
2023-11-23T14:16:30.848Z,12.08
2023-11-23T14:18:59.300Z,12.13
2023-11-23T14:21:29.994Z,12.08
2023-11-23T14:24:00.168Z,12.07
2023-11-23T14:26:29.893Z,12.08
2023-11-23T14:28:58.252Z,12.01
2023-11-23T14:31:26.735Z,11.96
2023-11-23T14:33:56.268Z,11.94
2023-11-23T14:36:24.654Z,11.83
2023-11-23T14:38:54.991Z,11.83
2023-11-23T14:41:26.055Z,11.77
2023-11-23T14:43:54.302Z,11.69
2023-11-23T14:46:22.819Z,11.70
2023-11-23T14:48:52.618Z,11.70
2023-11-23T14:51:21.408Z,11.63
2023-11-23T14:53:53.349Z,11.55
2023-11-23T14:56:30.500Z,11.63
2023-11-23T14:59:01.794Z,11.57
2023-11-23T15:01:30.316Z,11.52
2023-11-23T15:03:58.799Z,11.44
2023-11-23T15:06:27.568Z,11.44
2023-11-23T15:08:55.898Z,11.42
2023-11-23T15:11:25.346Z,11.39
2023-11-23T15:13:53.611Z,11.33
2023-11-23T15:16:23.383Z,11.30
2023-11-23T15:18:51.772Z,11.27
2023-11-23T15:21:20.229Z,11.23
2023-11-23T15:23:49.837Z,11.22
2023-11-23T15:26:18.193Z,11.15
2023-11-23T15:28:47.018Z,11.13
2023-11-23T15:31:16.894Z,11.08
2023-11-23T15:33:47.703Z,11.09
2023-11-23T15:36:16.563Z,11.07
2023-11-23T15:38:45.032Z,11.12
2023-11-23T15:41:13.880Z,11.07
2023-11-23T15:43:42.244Z,11.03
2023-11-23T15:46:12.904Z,11.01
2023-11-23T15:48:41.189Z,10.96
2023-11-23T15:51:15.587Z,10.94
2023-11-23T15:53:43.974Z,10.98
2023-11-23T15:56:16.718Z,10.89
2023-11-23T15:58:45.478Z,10.92
2023-11-23T16:01:14.451Z,10.89
2023-11-23T16:03:43.155Z,10.81
2023-11-23T16:06:13.248Z,10.85
2023-11-23T16:08:43.394Z,10.81
2023-11-23T16:11:12.230Z,10.78
2023-11-23T16:13:44.168Z,10.77
2023-11-23T16:16:12.611Z,10.68
2023-11-23T16:18:41.086Z,10.69
2023-11-23T16:21:11.264Z,10.66
2023-11-23T16:23:43.594Z,10.64
2023-11-23T16:26:12.104Z,10.60
2023-11-23T16:28:40.539Z,10.58
2023-11-23T16:31:08.874Z,10.54
2023-11-23T16:33:37.199Z,10.52
2023-11-23T16:36:05.784Z,10.57
2023-11-23T16:38:34.112Z,10.55
2023-11-23T16:41:03.813Z,10.53
2023-11-23T16:43:32.075Z,10.49
2023-11-23T16:46:00.450Z,10.44
2023-11-23T16:48:29.068Z,10.40
2023-11-23T16:50:57.475Z,10.39
2023-11-23T16:53:26.090Z,10.34
2023-11-23T16:55:54.399Z,10.34
2023-11-23T16:58:24.012Z,10.29
2023-11-23T17:00:54.045Z,10.28
2023-11-23T17:03:22.418Z,10.33
2023-11-23T17:05:52.542Z,10.35
2023-11-23T17:08:20.993Z,10.35
2023-11-23T17:10:50.211Z,10.23
2023-11-23T17:13:18.650Z,10.28
2023-11-23T17:15:48.322Z,10.29
2023-11-23T17:18:16.795Z,10.26
2023-11-23T17:20:46.180Z,10.33
2023-11-23T17:23:16.081Z,10.36
2023-11-23T17:25:44.758Z,10.38
2023-11-23T17:28:14.927Z,10.37
2023-11-23T17:30:43.665Z,10.35
2023-11-23T17:33:15.754Z,10.30
2023-11-23T17:35:44.277Z,10.24
2023-11-23T17:38:12.542Z,10.23
2023-11-23T17:40:42.867Z,10.22
2023-11-23T17:43:11.433Z,10.29
2023-11-23T17:45:39.796Z,10.27
2023-11-23T17:48:09.272Z,10.25
2023-11-23T17:50:41.295Z,10.25
2023-11-23T17:53:11.348Z,10.25
2023-11-23T17:55:39.835Z,10.24
2023-11-23T17:58:08.752Z,10.22
2023-11-23T18:00:39.970Z,10.26
2023-11-23T18:03:08.581Z,10.30
2023-11-23T18:05:43.275Z,10.26
2023-11-23T18:08:11.595Z,10.28
2023-11-23T18:10:40.188Z,10.30
2023-11-23T18:13:08.533Z,10.45
2023-11-23T18:15:37.510Z,10.46
2023-11-23T18:18:15.194Z,10.48
2023-11-23T18:20:52.979Z,10.53
2023-11-23T18:23:22.129Z,10.52
2023-11-23T18:25:50.470Z,10.58
2023-11-23T18:28:21.001Z,10.60
2023-11-23T18:30:51.728Z,10.64
2023-11-23T18:33:20.605Z,10.62
2023-11-23T18:35:49.224Z,10.65
2023-11-23T18:38:19.408Z,10.67
2023-11-23T18:40:48.794Z,10.65
2023-11-23T18:43:17.089Z,10.68
2023-11-23T18:45:45.406Z,10.69
2023-11-23T18:48:13.894Z,10.67
2023-11-23T18:50:42.274Z,10.70
2023-11-23T18:53:10.572Z,10.73
2023-11-23T18:55:40.332Z,10.71
2023-11-23T18:58:08.862Z,10.85
2023-11-23T19:00:37.880Z,10.83
2023-11-23T19:03:06.452Z,10.83
2023-11-23T19:05:35.776Z,10.86
2023-11-23T19:08:04.633Z,10.80
2023-11-23T19:10:33.421Z,10.80
2023-11-23T19:13:06.723Z,10.86
2023-11-23T19:15:36.292Z,10.86
2023-11-23T19:18:05.160Z,10.81
2023-11-23T19:20:35.246Z,10.83
2023-11-23T19:23:04.620Z,10.87
2023-11-23T19:25:34.997Z,10.87
2023-11-23T19:28:06.143Z,10.88
2023-11-23T19:30:35.120Z,10.87
2023-11-23T19:33:08.712Z,10.85
2023-11-23T19:35:37.693Z,10.92
2023-11-23T19:38:06.477Z,10.87
2023-11-23T19:40:36.263Z,10.89
2023-11-23T19:43:06.649Z,10.87
2023-11-23T19:45:36.051Z,10.85
2023-11-23T19:48:05.031Z,10.87
2023-11-23T19:50:34.656Z,10.85
2023-11-23T19:53:05.489Z,10.87
2023-11-23T19:55:34.744Z,10.93
2023-11-23T19:58:03.203Z,10.89
2023-11-23T20:00:33.051Z,10.92
2023-11-23T20:03:01.407Z,10.97
2023-11-23T20:05:29.812Z,11.00
2023-11-23T20:07:58.300Z,11.03
2023-11-23T20:10:26.916Z,11.03
2023-11-23T20:12:55.321Z,10.90
2023-11-23T20:15:23.669Z,10.97
2023-11-23T20:17:53.338Z,10.97
2023-11-23T20:20:21.764Z,11.01
2023-11-23T20:22:50.444Z,11.02
2023-11-23T20:25:19.048Z,11.05
2023-11-23T20:27:47.451Z,11.07
2023-11-23T20:30:16.492Z,11.09
2023-11-23T20:32:44.863Z,11.10
2023-11-23T20:35:14.539Z,11.09
2023-11-23T20:37:43.198Z,11.10
2023-11-23T20:40:12.852Z,11.16
2023-11-23T20:42:41.304Z,11.18
2023-11-23T20:45:11.050Z,11.16
2023-11-23T20:47:39.583Z,11.16
2023-11-23T20:50:09.813Z,11.18
2023-11-23T20:52:40.770Z,11.17
2023-11-23T20:55:12.499Z,11.15
2023-11-23T20:57:42.810Z,11.15
2023-11-23T21:00:13.352Z,11.15
2023-11-23T21:02:43.135Z,11.25
2023-11-23T21:05:13.103Z,11.24
2023-11-23T21:07:44.029Z,11.23
2023-11-23T21:10:13.233Z,11.24
2023-11-23T21:12:41.917Z,11.22
2023-11-23T21:15:11.183Z,11.20
2023-11-23T21:17:40.669Z,11.25
2023-11-23T21:20:10.610Z,11.24
2023-11-23T21:22:38.942Z,11.25
2023-11-23T21:25:10.462Z,11.27
2023-11-23T21:27:43.536Z,11.25
2023-11-23T21:30:12.736Z,11.19
2023-11-23T21:32:41.340Z,11.22
2023-11-23T21:35:10.176Z,11.24
2023-11-23T21:37:38.493Z,11.27
2023-11-23T21:40:10.913Z,11.31
2023-11-23T21:42:39.380Z,11.39
2023-11-23T21:45:09.025Z,11.42
2023-11-23T21:47:39.774Z,11.42
2023-11-23T21:50:09.866Z,11.42
2023-11-23T21:52:40.245Z,11.41
2023-11-23T21:55:11.634Z,11.43
2023-11-23T21:57:40.082Z,11.43
2023-11-23T22:00:10.506Z,11.52
2023-11-23T22:02:40.869Z,11.49
2023-11-23T22:05:10.166Z,11.55
2023-11-23T22:07:38.592Z,11.44
2023-11-23T22:10:09.699Z,11.37
2023-11-23T22:12:38.018Z,11.29
2023-11-23T22:15:08.165Z,11.34
2023-11-23T22:17:37.163Z,11.31
2023-11-23T22:20:06.540Z,11.30
2023-11-23T22:22:36.344Z,11.30
2023-11-23T22:25:05.764Z,11.30
2023-11-23T22:27:36.066Z,11.32
2023-11-23T22:30:05.337Z,11.33
2023-11-23T22:32:35.120Z,11.34
2023-11-23T22:35:04.087Z,11.41
2023-11-23T22:37:32.856Z,11.41
2023-11-23T22:40:01.592Z,11.41
2023-11-23T22:42:31.401Z,11.44
2023-11-23T22:45:01.728Z,11.37
2023-11-23T22:47:31.921Z,11.32
2023-11-23T22:50:00.334Z,11.31
2023-11-23T22:52:28.615Z,11.30
2023-11-23T22:54:56.927Z,11.31
2023-11-23T22:57:25.478Z,11.32
2023-11-23T22:59:53.718Z,11.34
2023-11-23T23:02:24.417Z,11.34
2023-11-23T23:04:52.882Z,11.34
2023-11-23T23:07:21.385Z,11.34
2023-11-23T23:09:49.652Z,11.31
2023-11-23T23:12:17.963Z,11.29
2023-11-23T23:14:46.184Z,11.30
2023-11-23T23:17:15.461Z,11.27
2023-11-23T23:19:45.354Z,11.11
2023-11-23T23:22:23.978Z,10.95
2023-11-23T23:24:55.175Z,10.77
2023-11-23T23:27:23.544Z,10.60
2023-11-23T23:29:51.960Z,10.50
2023-11-23T23:32:20.458Z,10.43
2023-11-23T23:34:50.053Z,10.39
2023-11-23T23:37:18.293Z,10.37
2023-11-23T23:39:46.639Z,10.37
2023-11-23T23:42:14.903Z,10.36
2023-11-23T23:44:43.112Z,10.40
2023-11-23T23:47:11.974Z,10.44
2023-11-23T23:49:40.505Z,10.44
2023-11-23T23:52:10.151Z,10.42
2023-11-23T23:54:38.503Z,10.50
2023-11-23T23:57:07.311Z,10.42
2023-11-23T23:59:36.176Z,10.40
